createdAt,value
2018-03-28T00:01:59.934Z,41.20
2018-03-28T00:04:28.422Z,41.30
2018-03-28T00:06:56.742Z,42.17
2018-03-28T00:09:25.086Z,41.83
2018-03-28T00:11:53.409Z,42.70
2018-03-28T00:14:21.827Z,42.90
2018-03-28T00:16:50.142Z,41.23
2018-03-28T00:19:18.489Z,40.27
2018-03-28T00:21:46.873Z,42.73
2018-03-28T00:24:15.147Z,40.27
2018-03-28T00:26:45.537Z,39.77
2018-03-28T00:29:13.958Z,41.22
2018-03-28T00:31:42.277Z,42.08
2018-03-28T00:34:10.625Z,37.57
2018-03-28T00:36:38.955Z,41.90
2018-03-28T00:39:07.304Z,38.07
2018-03-28T00:41:35.622Z,39.22
2018-03-28T00:44:03.962Z,41.33
2018-03-28T00:46:32.283Z,40.67
2018-03-28T00:49:00.627Z,40.92
2018-03-28T00:51:36.750Z,40.47
2018-03-28T00:54:05.096Z,40.42
2018-03-28T00:56:33.487Z,37.30
2018-03-28T00:59:01.831Z,38.50
2018-03-28T01:01:30.158Z,39.03
2018-03-28T01:03:58.497Z,38.25
2018-03-28T01:06:26.818Z,40.10
2018-03-28T01:08:55.162Z,37.15
2018-03-28T01:11:23.481Z,38.05
2018-03-28T01:13:51.821Z,40.05
2018-03-28T01:16:20.158Z,36.97
2018-03-28T01:18:48.462Z,36.30
2018-03-28T01:21:16.807Z,37.15
2018-03-28T01:23:45.121Z,36.63
2018-03-28T01:26:13.461Z,37.75
2018-03-28T01:28:41.775Z,36.65
2018-03-28T01:31:10.122Z,36.85
2018-03-28T01:33:38.442Z,35.95
2018-03-28T01:36:06.782Z,36.35
2018-03-28T01:38:35.144Z,35.20
2018-03-28T01:41:03.466Z,34.95
2018-03-28T01:43:31.790Z,38.60
2018-03-28T01:46:00.139Z,35.72
2018-03-28T01:48:28.462Z,33.15
2018-03-28T01:50:56.813Z,31.90
2018-03-28T01:53:25.139Z,32.50
2018-03-28T01:55:53.490Z,29.10
2018-03-28T01:58:21.813Z,32.15
2018-03-28T02:00:50.162Z,30.42
2018-03-28T02:03:18.485Z,32.42
2018-03-28T02:05:46.833Z,31.23
2018-03-28T02:08:15.161Z,30.95
2018-03-28T02:10:43.515Z,32.05
2018-03-28T02:13:11.842Z,29.60
2018-03-28T02:15:40.194Z,32.42
2018-03-28T02:18:08.523Z,29.67
2018-03-28T02:20:36.875Z,29.15
2018-03-28T02:23:05.198Z,29.40
2018-03-28T02:25:33.559Z,29.02
2018-03-28T02:28:01.892Z,36.30
2018-03-28T02:30:30.239Z,37.05
2018-03-28T02:32:58.562Z,40.75
2018-03-28T02:35:26.902Z,37.47
2018-03-28T02:37:55.222Z,37.92
2018-03-28T02:40:23.571Z,40.03
2018-03-28T02:42:51.900Z,36.47
2018-03-28T02:45:20.229Z,37.85
2018-03-28T02:47:48.550Z,35.17
2018-03-28T02:50:16.895Z,35.78
2018-03-28T02:52:45.214Z,35.88
2018-03-28T02:55:13.559Z,36.50
2018-03-28T02:57:41.885Z,36.22
2018-03-28T03:00:10.230Z,33.95
2018-03-28T03:02:38.550Z,36.47
2018-03-28T03:05:06.898Z,33.78
2018-03-28T03:07:35.214Z,37.33
2018-03-28T03:10:03.550Z,38.13
2018-03-28T03:12:31.890Z,36.70
2018-03-28T03:15:00.226Z,37.28
2018-03-28T03:17:28.565Z,36.30
2018-03-28T03:19:56.888Z,36.10
2018-03-28T03:22:25.231Z,35.97
2018-03-28T03:24:53.551Z,35.85
2018-03-28T03:27:21.889Z,36.10
2018-03-28T03:29:50.210Z,37.35
2018-03-28T03:32:18.554Z,35.70
2018-03-28T03:34:46.878Z,36.30
2018-03-28T03:37:15.218Z,35.63
2018-03-28T03:39:43.538Z,35.05
2018-03-28T03:42:11.874Z,34.65
2018-03-28T03:44:40.198Z,36.70
2018-03-28T03:47:08.545Z,36.65
2018-03-28T03:49:36.867Z,36.55
2018-03-28T03:52:05.214Z,35.85
2018-03-28T03:54:33.529Z,37.78
2018-03-28T03:57:01.880Z,37.40
2018-03-28T03:59:30.198Z,35.15
2018-03-28T04:01:58.542Z,38.25
2018-03-28T04:04:26.865Z,39.35
2018-03-28T04:06:55.218Z,39.80
2018-03-28T04:09:23.536Z,41.65
2018-03-28T04:11:51.880Z,38.28
2018-03-28T04:14:20.202Z,37.92
2018-03-28T04:16:48.542Z,37.05
2018-03-28T04:19:16.862Z,38.92
2018-03-28T04:21:45.202Z,38.20
2018-03-28T04:24:13.522Z,38.38
2018-03-28T04:26:41.861Z,41.13
2018-03-28T04:29:10.181Z,38.85
2018-03-28T04:31:38.531Z,38.03
2018-03-28T04:34:06.846Z,37.97
2018-03-28T04:36:35.194Z,41.28
2018-03-28T04:39:03.510Z,39.10
2018-03-28T04:41:31.853Z,39.97
2018-03-28T04:44:00.174Z,38.88
2018-03-28T04:46:28.518Z,41.05
2018-03-28T04:48:56.839Z,39.42
2018-03-28T04:51:25.173Z,39.20
2018-03-28T04:53:53.490Z,40.38
2018-03-28T04:56:21.829Z,41.72
2018-03-28T04:58:50.149Z,41.10
2018-03-28T05:01:18.493Z,39.22
2018-03-28T05:03:46.810Z,39.45
2018-03-28T05:06:15.150Z,41.15
2018-03-28T05:08:43.472Z,39.58
2018-03-28T05:11:11.813Z,39.45
2018-03-28T05:13:40.134Z,38.85
2018-03-28T05:16:08.473Z,38.60
2018-03-28T05:18:36.814Z,41.22
2018-03-28T05:21:05.133Z,39.13
2018-03-28T05:23:33.491Z,39.28
2018-03-28T05:26:02.106Z,39.60
2018-03-28T05:28:31.622Z,37.67
2018-03-28T05:31:00.007Z,39.60
2018-03-28T05:33:28.350Z,39.37
2018-03-28T05:35:56.677Z,40.47
2018-03-28T05:38:25.019Z,39.60
2018-03-28T05:40:53.339Z,40.33
2018-03-28T05:43:21.696Z,38.90
2018-03-28T05:45:50.010Z,40.37
2018-03-28T05:48:18.354Z,39.27
2018-03-28T05:50:46.680Z,41.60
2018-03-28T05:53:15.053Z,40.57
2018-03-28T05:55:43.600Z,40.63
2018-03-28T05:58:12.023Z,40.90
2018-03-28T06:00:40.350Z,42.67
2018-03-28T06:03:08.694Z,39.67
2018-03-28T06:05:37.022Z,39.25
2018-03-28T06:08:05.914Z,39.92
2018-03-28T06:10:34.254Z,40.73
2018-03-28T06:13:02.665Z,41.23
2018-03-28T06:15:30.930Z,42.97
2018-03-28T06:17:59.278Z,41.50
2018-03-28T06:20:27.674Z,41.77
2018-03-28T06:22:56.014Z,42.10
2018-03-28T06:25:24.390Z,39.77
2018-03-28T06:27:52.735Z,42.10
2018-03-28T06:30:21.449Z,40.13
2018-03-28T06:32:49.870Z,42.20
2018-03-28T06:35:18.627Z,42.20
2018-03-28T06:37:47.015Z,43.30
2018-03-28T06:40:16.198Z,42.10
2018-03-28T06:42:44.542Z,42.88
2018-03-28T06:45:12.866Z,41.40
2018-03-28T06:47:41.214Z,40.78
2018-03-28T06:50:09.546Z,41.30
2018-03-28T06:52:37.893Z,43.03
2018-03-28T06:55:06.224Z,42.28
2018-03-28T06:57:34.559Z,41.90
2018-03-28T07:00:02.886Z,39.97
2018-03-28T07:02:31.245Z,40.50
2018-03-28T07:04:59.570Z,43.03
2018-03-28T07:07:28.086Z,45.70
2018-03-28T07:09:56.451Z,40.87
2018-03-28T07:12:25.152Z,40.63
2018-03-28T07:14:53.473Z,40.10
2018-03-28T07:17:21.814Z,43.75
2018-03-28T07:19:50.138Z,42.13
2018-03-28T07:22:18.462Z,41.90
2018-03-28T07:24:46.806Z,40.30
2018-03-28T07:27:15.129Z,40.13
2018-03-28T07:29:43.474Z,38.63
2018-03-28T07:32:11.793Z,42.40
2018-03-28T07:34:40.134Z,38.03
2018-03-28T07:37:08.455Z,41.03
2018-03-28T07:39:36.802Z,40.80
2018-03-28T07:42:05.125Z,42.00
2018-03-28T07:44:33.463Z,41.83
2018-03-28T07:47:01.782Z,38.37
2018-03-28T07:49:30.126Z,40.37
2018-03-28T07:51:58.449Z,39.27
2018-03-28T07:54:26.791Z,43.53
2018-03-28T07:56:55.116Z,38.58
2018-03-28T07:59:23.463Z,39.10
2018-03-28T08:01:51.786Z,39.22
2018-03-28T08:04:20.122Z,38.40
2018-03-28T08:06:48.446Z,39.33
2018-03-28T08:09:16.790Z,40.07
2018-03-28T08:11:45.114Z,38.73
2018-03-28T08:14:13.457Z,39.80
2018-03-28T08:16:41.785Z,39.97
2018-03-28T08:19:10.172Z,36.90
2018-03-28T08:21:38.457Z,39.40
2018-03-28T08:24:06.806Z,36.57
2018-03-28T08:26:35.126Z,37.05
2018-03-28T08:29:03.467Z,39.17
2018-03-28T08:31:31.790Z,35.67
2018-03-28T08:34:00.134Z,37.43
2018-03-28T08:36:28.456Z,36.17
2018-03-28T08:38:56.806Z,36.03
2018-03-28T08:41:25.135Z,35.33
2018-03-28T08:43:54.290Z,36.05
2018-03-28T08:46:23.591Z,36.23
2018-03-28T08:48:51.938Z,34.90
2018-03-28T08:51:20.259Z,36.67
2018-03-28T08:53:48.602Z,37.15
2018-03-28T08:56:17.957Z,37.07
2018-03-28T08:58:46.303Z,39.53
2018-03-28T09:01:14.626Z,38.50
2018-03-28T09:03:42.973Z,36.17
2018-03-28T09:06:11.366Z,38.63
2018-03-28T09:08:39.707Z,38.70
2018-03-28T09:11:08.026Z,39.53
2018-03-28T09:13:36.370Z,39.93
2018-03-28T09:16:04.694Z,38.13
2018-03-28T09:18:33.055Z,42.40
2018-03-28T09:21:01.377Z,39.97
2018-03-28T09:23:29.749Z,90.47
2018-03-28T09:25:58.118Z,54.00
2018-03-28T09:28:26.442Z,84.67
2018-03-28T09:30:54.785Z,50.43
2018-03-28T09:33:23.111Z,41.20
2018-03-28T09:35:51.640Z,42.93
2018-03-28T09:38:19.958Z,40.63
2018-03-28T09:40:48.327Z,41.47
2018-03-28T09:43:17.179Z,38.33
2018-03-28T09:45:45.534Z,40.87
2018-03-28T09:48:13.934Z,37.53
2018-03-28T09:50:42.291Z,37.63
2018-03-28T09:53:10.622Z,37.87
2018-03-28T09:55:39.141Z,36.63
2018-03-28T09:58:07.625Z,37.47
2018-03-28T10:00:35.982Z,38.37
2018-03-28T10:03:09.970Z,38.17
2018-03-28T10:05:39.157Z,38.40
2018-03-28T10:08:08.318Z,38.35
2018-03-28T10:10:36.685Z,38.80
2018-03-28T10:13:05.019Z,37.63
2018-03-28T10:15:33.366Z,37.83
2018-03-28T10:18:01.768Z,34.50
2018-03-28T10:20:30.051Z,35.57
2018-03-28T10:22:58.382Z,32.70
2018-03-28T10:25:26.722Z,30.83
2018-03-28T10:27:55.059Z,29.30
2018-03-28T10:30:23.414Z,27.70
2018-03-28T10:32:51.762Z,27.77
2018-03-28T10:35:20.094Z,23.93
2018-03-28T10:37:48.425Z,25.73
2018-03-28T10:40:16.783Z,24.60
2018-03-28T10:42:45.121Z,23.80
2018-03-28T10:45:13.474Z,19.50
2018-03-28T10:47:41.802Z,20.73
2018-03-28T10:50:10.145Z,20.60
2018-03-28T10:52:38.482Z,21.07
2018-03-28T10:55:06.836Z,20.40
2018-03-28T10:57:35.170Z,17.87
2018-03-28T11:00:03.513Z,19.50
2018-03-28T11:02:31.847Z,18.30
2018-03-28T11:05:00.202Z,18.30
2018-03-28T11:07:28.530Z,20.43
2018-03-28T11:09:56.878Z,20.37
2018-03-28T11:12:25.215Z,21.60
2018-03-28T11:14:53.570Z,21.08
2018-03-28T11:17:21.908Z,19.35
2018-03-28T11:19:50.263Z,22.30
2018-03-28T11:22:18.594Z,21.50
2018-03-28T11:24:46.938Z,20.37
2018-03-28T11:27:15.275Z,19.77
2018-03-28T11:29:43.626Z,19.70
2018-03-28T11:32:11.949Z,20.50
2018-03-28T11:34:40.288Z,22.80
2018-03-28T11:37:08.638Z,21.27
2018-03-28T11:39:36.971Z,22.20
2018-03-28T11:42:05.317Z,22.75
2018-03-28T11:44:33.647Z,21.57
2018-03-28T11:47:01.995Z,21.43
2018-03-28T11:49:30.325Z,21.17
2018-03-28T11:51:58.695Z,22.83
2018-03-28T11:54:27.021Z,22.45
2018-03-28T11:56:55.376Z,20.90
2018-03-28T11:59:23.707Z,22.67
2018-03-28T12:01:52.051Z,22.87
2018-03-28T12:04:20.641Z,23.60
2018-03-28T12:06:48.989Z,23.77
2018-03-28T12:09:17.318Z,24.80
2018-03-28T12:11:45.670Z,22.02
2018-03-28T12:14:14.041Z,23.20
2018-03-28T12:16:42.369Z,22.73
2018-03-28T12:19:10.701Z,23.02
2018-03-28T12:21:39.055Z,23.30
2018-03-28T12:24:07.383Z,21.80
2018-03-28T12:26:35.734Z,22.70
2018-03-28T12:29:04.081Z,22.93
2018-03-28T12:31:32.418Z,21.70
2018-03-28T12:34:00.747Z,22.75
2018-03-28T12:36:29.095Z,23.00
2018-03-28T12:38:57.425Z,21.43
2018-03-28T12:41:25.774Z,21.97
2018-03-28T12:43:54.102Z,22.87
2018-03-28T12:46:22.450Z,22.30
2018-03-28T12:48:50.778Z,20.43
2018-03-28T12:51:19.130Z,23.75
2018-03-28T12:53:47.470Z,20.70
2018-03-28T12:56:15.837Z,22.30
2018-03-28T12:58:44.173Z,23.38
2018-03-28T13:01:12.578Z,20.30
2018-03-28T13:03:40.898Z,21.33
2018-03-28T13:06:09.246Z,21.58
2018-03-28T13:08:37.582Z,22.83
2018-03-28T13:11:05.936Z,19.60
2018-03-28T13:13:34.258Z,21.17
2018-03-28T13:16:02.613Z,22.47
2018-03-28T13:18:30.943Z,19.87
2018-03-28T13:20:59.304Z,20.90
2018-03-28T13:23:27.642Z,20.17
2018-03-28T13:25:55.998Z,21.00
2018-03-28T13:28:24.330Z,20.40
2018-03-28T13:30:52.682Z,20.57
2018-03-28T13:33:21.012Z,22.23
2018-03-28T13:35:49.339Z,21.83
2018-03-28T13:38:17.687Z,21.33
2018-03-28T13:40:46.507Z,20.97
2018-03-28T13:43:14.854Z,19.93
2018-03-28T13:45:43.192Z,21.53
2018-03-28T13:48:11.542Z,25.27
2018-03-28T13:50:39.886Z,28.20
2018-03-28T13:53:08.230Z,27.77
2018-03-28T13:55:36.866Z,28.48
2018-03-28T13:58:05.218Z,28.13
2018-03-28T14:00:33.548Z,27.27
2018-03-28T14:03:01.900Z,28.60
2018-03-28T14:05:30.230Z,30.33
2018-03-28T14:07:58.576Z,31.97
2018-03-28T14:10:26.911Z,31.15
2018-03-28T14:12:55.262Z,32.60
2018-03-28T14:15:23.589Z,32.20
2018-03-28T14:17:51.933Z,32.00
2018-03-28T14:20:20.267Z,32.50
2018-03-28T14:22:48.618Z,31.42
2018-03-28T14:25:16.961Z,32.37
2018-03-28T14:27:45.298Z,30.33
2018-03-28T14:30:13.637Z,30.90
2018-03-28T14:32:41.982Z,31.57
2018-03-28T14:35:10.310Z,22.07
2018-03-28T14:37:38.687Z,19.27
2018-03-28T14:40:07.010Z,19.80
2018-03-28T14:42:35.937Z,19.77
2018-03-28T14:45:04.249Z,18.85
2018-03-28T14:47:32.626Z,19.87
2018-03-28T14:50:01.130Z,18.10
2018-03-28T14:52:29.689Z,20.50
2018-03-28T14:54:58.069Z,19.67
2018-03-28T14:57:26.412Z,20.53
2018-03-28T14:59:54.837Z,20.10
2018-03-28T15:02:23.211Z,19.73
2018-03-28T15:04:51.563Z,20.67
2018-03-28T15:07:19.982Z,19.58
2018-03-28T15:09:48.351Z,21.03
2018-03-28T15:12:16.745Z,21.48
2018-03-28T15:14:45.081Z,20.10
2018-03-28T15:17:13.744Z,21.50
2018-03-28T15:19:42.170Z,22.03
2018-03-28T15:22:10.617Z,22.25
2018-03-28T15:24:38.989Z,39.78
2018-03-28T15:27:08.349Z,70.00
2018-03-28T15:29:36.710Z,91.20
2018-03-28T15:32:05.086Z,29.93
2018-03-28T15:34:33.542Z,46.07
2018-03-28T15:37:01.943Z,25.90
2018-03-28T15:39:30.397Z,25.30
2018-03-28T15:41:58.704Z,24.37
2018-03-28T15:44:27.046Z,23.60
2018-03-28T15:46:55.503Z,25.98
2018-03-28T15:49:23.938Z,25.77
2018-03-28T15:51:52.288Z,27.57
2018-03-28T15:54:20.695Z,25.52
2018-03-28T15:56:49.962Z,25.57
2018-03-28T15:59:18.927Z,27.10
2018-03-28T16:01:47.600Z,21.30
2018-03-28T16:04:16.714Z,21.67
2018-03-28T16:06:45.443Z,17.90
2018-03-28T16:09:14.678Z,17.97
2018-03-28T16:11:43.434Z,18.10
2018-03-28T16:14:13.334Z,19.33
2018-03-28T16:16:41.974Z,21.70
2018-03-28T16:19:10.714Z,20.00
2018-03-28T16:21:39.521Z,19.10
2018-03-28T16:24:08.363Z,19.03
2018-03-28T16:26:37.022Z,16.27
2018-03-28T16:29:05.731Z,18.73
2018-03-28T16:31:35.238Z,20.23
2018-03-28T16:34:03.922Z,19.20
2018-03-28T16:36:33.148Z,18.73
2018-03-28T16:39:01.816Z,18.55
2018-03-28T16:41:30.546Z,15.60
2018-03-28T16:43:59.207Z,17.83
2018-03-28T16:46:28.366Z,18.60
2018-03-28T16:48:57.659Z,20.35
2018-03-28T16:51:26.295Z,20.00
2018-03-28T16:53:55.093Z,19.50
2018-03-28T16:56:23.777Z,19.08
2018-03-28T16:58:53.423Z,18.23
2018-03-28T17:01:22.135Z,18.03
2018-03-28T17:03:50.822Z,18.40
2018-03-28T17:06:19.494Z,18.63
2018-03-28T17:08:47.895Z,19.17
2018-03-28T17:11:16.234Z,21.75
2018-03-28T17:13:44.566Z,22.03
2018-03-28T17:16:12.926Z,20.30
2018-03-28T17:18:41.247Z,20.70
2018-03-28T17:21:09.594Z,21.03
2018-03-28T17:23:37.918Z,21.07
2018-03-28T17:26:06.266Z,20.90
2018-03-28T17:28:34.603Z,20.63
2018-03-28T17:31:02.958Z,21.20
2018-03-28T17:33:31.286Z,20.73
2018-03-28T17:35:59.634Z,20.17
2018-03-28T17:38:27.977Z,24.92
2018-03-28T17:40:56.311Z,23.00
2018-03-28T17:43:24.649Z,19.30
2018-03-28T17:45:52.970Z,18.23
2018-03-28T17:48:21.314Z,18.50
2018-03-28T17:50:49.641Z,17.77
2018-03-28T17:53:17.991Z,17.33
2018-03-28T17:55:46.310Z,16.95
2018-03-28T17:58:14.654Z,19.17
2018-03-28T18:00:43.206Z,18.07
2018-03-28T18:03:11.554Z,19.53
2018-03-28T18:05:39.884Z,18.53
2018-03-28T18:08:08.226Z,19.00
2018-03-28T18:10:36.549Z,17.90
2018-03-28T18:13:04.898Z,17.98
2018-03-28T18:15:33.222Z,20.67
2018-03-28T18:18:01.568Z,20.40
2018-03-28T18:20:30.818Z,19.83
2018-03-28T18:22:59.167Z,20.17
2018-03-28T18:25:27.490Z,19.20
2018-03-28T18:27:55.833Z,18.70
2018-03-28T18:30:24.165Z,17.92
2018-03-28T18:32:52.518Z,17.63
2018-03-28T18:35:20.852Z,18.20
2018-03-28T18:37:49.199Z,18.80
2018-03-28T18:40:17.514Z,19.50
2018-03-28T18:42:45.874Z,19.23
2018-03-28T18:45:14.191Z,19.20
2018-03-28T18:47:42.517Z,17.62
2018-03-28T18:50:10.858Z,17.80
2018-03-28T18:52:39.187Z,19.58
2018-03-28T18:55:07.526Z,18.00
2018-03-28T18:57:35.854Z,16.40
2018-03-28T19:00:04.199Z,17.30
2018-03-28T19:02:32.528Z,18.58
2018-03-28T19:05:01.681Z,18.77
2018-03-28T19:07:30.001Z,17.90
2018-03-28T19:09:58.350Z,16.87
2018-03-28T19:12:26.681Z,19.57
2018-03-28T19:14:55.044Z,22.17
2018-03-28T19:17:23.349Z,21.70
2018-03-28T19:19:51.696Z,17.70
2018-03-28T19:22:20.021Z,18.47
2018-03-28T19:24:48.366Z,19.17
2018-03-28T19:27:16.686Z,19.40
2018-03-28T19:29:45.034Z,18.40
2018-03-28T19:32:13.354Z,18.98
2018-03-28T19:34:41.714Z,20.08
2018-03-28T19:37:10.037Z,20.20
2018-03-28T19:39:38.381Z,19.87
2018-03-28T19:42:06.706Z,22.70
2018-03-28T19:44:35.058Z,23.63
2018-03-28T19:47:03.378Z,24.23
2018-03-28T19:49:31.722Z,23.55
2018-03-28T19:52:00.042Z,25.10
2018-03-28T19:54:28.381Z,24.83
2018-03-28T19:56:56.705Z,27.33
2018-03-28T19:59:25.051Z,26.77
2018-03-28T20:01:53.398Z,25.37
2018-03-28T20:06:56.378Z,26.40
2018-03-28T20:09:24.719Z,26.60
2018-03-28T20:11:53.043Z,25.33
2018-03-28T20:14:21.389Z,25.27
2018-03-28T20:16:49.714Z,26.95
2018-03-28T20:19:18.062Z,26.70
2018-03-28T20:21:46.377Z,27.48
2018-03-28T20:24:14.719Z,26.60
2018-03-28T20:26:43.041Z,26.20
2018-03-28T20:29:11.385Z,25.23
2018-03-28T20:31:39.714Z,24.97
2018-03-28T20:34:08.058Z,24.65
2018-03-28T20:36:36.386Z,25.60
2018-03-28T20:39:04.730Z,27.00
2018-03-28T20:41:33.050Z,25.83
2018-03-28T20:44:01.647Z,25.57
2018-03-28T20:46:30.097Z,23.60
2018-03-28T20:48:58.446Z,26.70
2018-03-28T20:51:26.773Z,24.10
2018-03-28T20:53:55.790Z,23.40
2018-03-28T20:56:24.270Z,24.30
2018-03-28T20:58:52.834Z,21.80
2018-03-28T21:01:21.408Z,25.07
2018-03-28T21:03:49.852Z,23.10
2018-03-28T21:06:18.411Z,24.10
2018-03-28T21:08:46.730Z,25.33
2018-03-28T21:11:15.098Z,23.17
2018-03-28T21:13:43.445Z,21.35
2018-03-28T21:16:12.374Z,21.70
2018-03-28T21:18:40.694Z,23.30
2018-03-28T21:21:09.037Z,24.15
2018-03-28T21:23:37.363Z,24.53
2018-03-28T21:26:05.710Z,23.30
2018-03-28T21:28:34.073Z,24.67
2018-03-28T21:31:02.394Z,23.27
2018-03-28T21:33:30.715Z,23.17
2018-03-28T21:35:59.062Z,22.00
2018-03-28T21:38:27.382Z,21.30
2018-03-28T21:40:55.739Z,22.98
2018-03-28T21:43:24.055Z,23.40
2018-03-28T21:45:52.402Z,23.70
2018-03-28T21:48:20.732Z,21.90
2018-03-28T21:50:49.082Z,20.87
2018-03-28T21:53:17.410Z,23.00
2018-03-28T21:55:45.749Z,22.57
2018-03-28T21:58:14.072Z,24.17
2018-03-28T22:00:42.423Z,23.50
2018-03-28T22:03:10.762Z,22.37
2018-03-28T22:05:39.242Z,23.35
2018-03-28T22:08:07.550Z,21.77
2018-03-28T22:10:35.901Z,21.90
2018-03-28T22:13:04.221Z,23.43
2018-03-28T22:15:32.562Z,20.10
2018-03-28T22:18:00.887Z,20.53
2018-03-28T22:20:29.232Z,21.07
2018-03-28T22:22:57.553Z,19.50
2018-03-28T22:25:25.902Z,17.77
2018-03-28T22:27:54.226Z,18.48
2018-03-28T22:30:22.566Z,18.23
2018-03-28T22:32:50.890Z,14.50
2018-03-28T22:35:19.431Z,10.18
2018-03-28T22:37:47.742Z,8.13
2018-03-28T22:40:16.084Z,7.90
2018-03-28T22:42:44.402Z,10.95
2018-03-28T22:45:12.760Z,11.40
2018-03-28T22:47:41.087Z,10.83
2018-03-28T22:50:09.408Z,11.70
2018-03-28T22:52:37.763Z,10.07
2018-03-28T22:55:06.938Z,10.97
2018-03-28T22:57:35.286Z,10.73
2018-03-28T23:00:03.615Z,10.47
2018-03-28T23:02:31.681Z,10.97
2018-03-28T23:05:00.005Z,11.47
2018-03-28T23:07:28.350Z,10.83
2018-03-28T23:09:56.686Z,10.97
2018-03-28T23:12:25.034Z,11.63
2018-03-28T23:14:53.749Z,10.85
2018-03-28T23:17:22.091Z,10.57
2018-03-28T23:19:50.407Z,9.40
2018-03-28T23:22:30.506Z,10.70
2018-03-28T23:24:58.826Z,8.43
2018-03-28T23:27:27.166Z,8.88
2018-03-28T23:29:55.486Z,8.80
2018-03-28T23:32:23.822Z,9.10
2018-03-28T23:34:52.159Z,10.95
2018-03-28T23:37:20.504Z,11.47
2018-03-28T23:39:48.836Z,11.60
2018-03-28T23:42:17.202Z,11.00
2018-03-28T23:44:45.496Z,9.23
2018-03-28T23:47:14.782Z,8.60
2018-03-28T23:49:43.096Z,6.50
2018-03-28T23:52:11.422Z,6.90
2018-03-28T23:54:39.730Z,6.57
2018-03-28T23:57:08.062Z,7.03
2018-03-28T23:59:36.370Z,6.05
